Meteo Giornale » Osservazioni meteo Stati Uniti (USA) » Pope
ore: 10:55 - Osservazioni Meteo Pope
Lat. 35° 10' N Lon. 79° 2' W Alt. 61 metri s.l.m.
30 °C
Poco Nuvoloso
Temp. 24 Ore
21 °C
30 °C
Nord
0 Km/h
Dew point 24 °C
Umidità 70 %
Visibilità 10 Km
Il sole sorge alle ore 06:48
Il sole tramonta alle ore 19:44
| Data e Ora | Cielo e Fenomeni | T °C | DP °C | Um. % | Pres. hPa | Vis. km | Vento km/h | |
|---|---|---|---|---|---|---|---|---|
| Oggi h: 10:55 | Poco Nuvoloso | 30 | 24 | 70 | 1020 | 10 | N 0 | |
| Oggi h: 10:45 | Poco Nuvoloso | 29 | 23 | 70 | 1020 | 10 | N 0 | |
| Oggi h: 10:35 | Pioviggine | 29 | 23 | 70 | 1020 | 10 | N 5.5 | |
| Oggi h: 09:55 | Sereno | 28 | 25 | 83 | 1019 | 10 | N 5.5 | |
| Oggi h: 08:55 | Sereno | 25 | 14 | 50 | 1020 | 10 | N 0 | |
| Oggi h: 07:55 | Poco Nuvoloso | 22 | 21 | 94 | 1019 | 13 | N 0 | |
| Oggi h: 07:40 | Foschia | 22 | 21 | 94 | 1019 | 10 | N 5.5 | |
| Oggi h: 07:35 | Foschia | 22 | 21 | 94 | 1019 | 2 | N 5.5 | |
| Oggi h: 07:30 | Foschia | 21 | 21 | 100 | 1019 | 2 | N 0 | |
| Oggi h: 07:25 | Foschia | 21 | 21 | 100 | 1019 | 2 | N 0 | |
| Oggi h: 07:20 | Foschia | 21 | 21 | 100 | 1019 | 5 | N 0 | |
| Oggi h: 07:05 | Foschia | 21 | 21 | 100 | 1019 | 8 | N 0 | |
| Oggi h: 07:00 | Foschia | 21 | 21 | 100 | 1019 | 2 | N 0 | |
| Oggi h: 06:55 | Nebbia | 22 | 21 | 94 | 1019 | 5 | N 0 | |
| Oggi h: 06:52 | Nebbia | 22 | 21 | 94 | 1019 | 5 | N 5.5 | |
| Oggi h: 06:47 | Nebbia | 22 | 21 | 94 | 1019 | 5 | N 0 | |
| Oggi h: 06:37 | Nebbia | 22 | 21 | 94 | 1019 | 5 | N 0 | |
| Oggi h: 06:32 | Nebbia | 22 | 21 | 94 | 1019 | 2 | N 0 | |
| Oggi h: 06:12 | Molto Nuvoloso | 21 | 21 | 100 | 1019 | 10 | N 0 | |
| Oggi h: 06:02 | Poco Nuvoloso | 21 | 21 | 100 | 1019 | 10 | N 0 | |
| Oggi h: 05:55 | Sereno | 21 | 21 | 100 | 1019 | 10 | N 0 | |
| Oggi h: 04:55 | Sereno | 21 | 21 | 100 | 1019 | 10 | N 0 | |
| Oggi h: 03:55 | Sereno | 22 | 21 | 94 | 1019 | 10 | N 0 | |
| Oggi h: 02:55 | Sereno | 22 | 22 | 100 | 1019 | 10 | N 0 | |
| Oggi h: 02:34 | Sereno | 23 | 22 | 94 | 1019 | 10 | N 0 | |
| Oggi h: 01:55 | Sereno | 23 | 22 | 94 | 1020 | 10 | N 0 | |
| Oggi h: 00:55 | Sereno | 23 | 22 | 94 | 1020 | 13 | N 0 | |
| Ieri h: 23:55 | Sereno | 24 | 24 | 100 | 1020 | 10 | N 0 | |
| Ieri h: 22:55 | Sereno | 24 | 24 | 100 | 1020 | 10 | N 0 | |
| Ieri h: 21:55 | Sereno | 25 | 24 | 94 | 1020 | 10 | N 0 | |
| Ieri h: 21:45 | Sereno | 25 | 25 | 100 | 1020 | 10 | N 0 | |
| Ieri h: 20:55 | Sereno | 26 | 24 | 88 | 1019 | 10 | N 0 | |
| Ieri h: 19:55 | Molto Nuvoloso | 28 | 23 | 74 | 1019 | 10 | N 5.5 | |
| Ieri h: 18:55 | Coperto | 28 | 22 | 69 | 1019 | 10 | N 5.5 | |
| Ieri h: 17:55 | Molto Nuvoloso | 30 | 22 | 62 | 1019 | 10 | E 9.3 | |
| Ieri h: 16:55 | Sereno | 30 | 22 | 62 | 1019 | 10 | N 5.5 | |
| Ieri h: 16:43 | Sereno | 30 | 22 | 62 | 1019 | 10 | N 5.5 | |
| Ieri h: 15:55 | Sereno | 30 | 22 | 62 | 1020 | 10 | O/NO 7.4 | |
| Ieri h: 15:40 | Poco Nuvoloso | 30 | 22 | 62 | 1020 | 10 | N 0 | |
| Ieri h: 14:55 | Sereno | 30 | 22 | 62 | 1020 | 10 | N 0 | |
| Ieri h: 14:39 | Poco Nuvoloso | 29 | 22 | 66 | 1020 | 10 | N 0 | |
| Ieri h: 13:55 | Poco Nuvoloso | 29 | 22 | 66 | 1021 | 10 | N 0 | |
| Ieri h: 13:27 | Poco Nuvoloso | 28 | 22 | 69 | 1021 | 10 | N 0 | |
| Ieri h: 12:55 | Nuvoloso | 28 | 22 | 69 | 1022 | 10 | N 0 | |
| Ieri h: 12:15 | Poco Nuvoloso | 27 | 23 | 78 | 1022 | 10 | N 0 | |
| Ieri h: 11:55 | Nuvoloso | 26 | 23 | 83 | 1022 | 10 | E/NE 7.4 | |
| Ieri h: 11:45 | Nuvoloso | 26 | 23 | 83 | 1022 | 10 | E/NE 7.4 | |
| Ieri h: 11:40 | Molto Nuvoloso | 26 | 23 | 83 | 1022 | 10 | E/NE 7.4 | |



